Time;durP1;ratioP1;P1;durP2;ratioP2;P2;SDS_P1;SDS_P2;PMS_P1;PMS_P2;Temp;Humidity;BMP_temperature;BMP_pressure;BME280_temperature;BME280_humidity;BME280_pressure;Samples;Min_cycle;Max_cycle;Signal;HPM_P1;HPM_P2
2021/07/25 00:02:25;;;;;;;16.50;13.80;;;;;;;23.19;76.42;97977.31;5017455;28;20478;-56
2021/07/25 00:04:50;;;;;;;17.10;14.18;;;;;;;23.15;76.62;97972.75;5020056;28;20256;-57
2021/07/25 00:07:16;;;;;;;17.20;14.48;;;;;;;23.02;76.59;97985.25;5020240;28;20044;-57
2021/07/25 00:09:41;;;;;;;16.15;13.90;;;;;;;23.10;76.68;97983.28;5006571;28;20025;-58
2021/07/25 00:12:07;;;;;;;16.60;13.65;;;;;;;23.07;77.04;97979.25;5020050;28;20092;-57
2021/07/25 00:14:32;;;;;;;18.00;14.27;;;;;;;22.74;77.02;97927.00;5017767;28;20025;-56
2021/07/25 00:16:58;;;;;;;16.58;14.77;;;;;;;23.14;76.88;97985.19;5021204;28;20045;-57
2021/07/25 00:19:23;;;;;;;16.58;13.68;;;;;;;23.10;77.01;97976.13;5041777;28;20045;-57
2021/07/25 00:21:48;;;;;;;16.85;13.98;;;;;;;23.16;76.88;97982.31;5022234;28;20092;-57
2021/07/25 00:24:17;;;;;;;15.70;13.98;;;;;;;23.19;77.19;97981.81;5023254;28;20119;-57
2021/07/25 00:26:48;;;;;;;15.50;13.95;;;;;;;23.18;76.72;97986.34;5039019;28;20021;-57
2021/07/25 00:29:14;;;;;;;16.33;14.05;;;;;;;23.18;77.09;97985.50;5019224;28;20030;-57
2021/07/25 00:31:39;;;;;;;15.85;14.13;;;;;;;22.98;77.28;97954.16;5027952;28;20022;-57
2021/07/25 00:34:05;;;;;;;18.58;14.85;;;;;;;23.17;76.84;97986.56;5022285;28;20037;-57
2021/07/25 00:36:30;;;;;;;18.27;14.52;;;;;;;23.19;76.84;97984.47;5029856;28;20138;-58
2021/07/25 00:38:56;;;;;;;15.95;14.23;;;;;;;22.99;77.12;97977.78;5022112;28;20056;-55
2021/07/25 00:41:21;;;;;;;17.02;14.45;;;;;;;23.09;76.83;97990.44;5021863;28;20022;-57
2021/07/25 00:43:48;;;;;;;16.58;13.77;;;;;;;23.12;77.13;97975.88;5023635;28;20056;-55
2021/07/25 00:46:17;;;;;;;17.60;14.43;;;;;;;23.14;76.38;97977.22;5018172;28;20018;-56
2021/07/25 00:48:44;;;;;;;17.15;13.80;;;;;;;23.11;76.81;97974.25;4997178;28;20036;-56
2021/07/25 00:51:10;;;;;;;15.80;14.10;;;;;;;23.15;76.72;97968.25;5003436;28;20568;-56
2021/07/25 00:53:38;;;;;;;14.55;12.75;;;;;;;22.97;76.07;97936.66;5025365;28;20121;-56
2021/07/25 00:56:07;;;;;;;15.45;13.65;;;;;;;23.16;76.60;97958.44;5005307;28;20033;-54
2021/07/25 00:58:38;;;;;;;15.70;13.90;;;;;;;23.20;76.67;97963.03;5012920;28;20056;-57
2021/07/25 01:01:04;;;;;;;17.45;13.80;;;;;;;23.24;76.63;97955.41;5024297;28;20555;-57
2021/07/25 01:03:51;;;;;;;16.73;13.95;;;;;;;23.19;76.38;97958.75;5034265;28;20079;-56
2021/07/25 01:06:36;;;;;;;15.75;14.00;;;;;;;23.19;77.03;97956.09;5015904;28;20033;-57
2021/07/25 01:09:07;;;;;;;16.10;14.15;;;;;;;23.16;76.72;97953.97;5027762;28;20055;-56
2021/07/25 01:11:37;;;;;;;15.98;13.88;;;;;;;23.25;75.95;97945.56;5020672;28;20064;-56
2021/07/25 01:14:03;;;;;;;15.57;13.88;;;;;;;23.15;76.13;97949.69;5017627;28;20018;-55
2021/07/25 01:16:30;;;;;;;17.00;13.27;;;;;;;23.23;76.50;97948.47;5019085;28;20025;-59
2021/07/25 01:18:56;;;;;;;17.00;13.85;;;;;;;23.20;76.46;97943.63;5002742;28;20124;-56
2021/07/25 01:21:21;;;;;;;15.85;13.85;;;;;;;23.22;76.52;97947.66;5021002;28;20104;-57
2021/07/25 01:23:47;;;;;;;15.98;14.13;;;;;;;23.26;76.68;97945.34;5021467;28;20037;-56
2021/07/25 01:26:14;;;;;;;15.50;13.60;;;;;;;23.05;76.48;97917.72;5004149;28;20036;-56
2021/07/25 01:28:46;;;;;;;17.40;14.43;;;;;;;23.21;76.01;97951.34;5007775;28;20025;-57
2021/07/25 01:31:22;;;;;;;16.17;13.57;;;;;;;23.22;74.76;97950.31;5016276;28;20052;-56
2021/07/25 01:33:48;;;;;;;14.38;12.77;;;;;;;23.13;74.78;97940.38;5002221;28;20022;-56
2021/07/25 01:36:14;;;;;;;15.77;12.98;;;;;;;23.16;75.65;97958.44;5017975;28;20065;-57
2021/07/25 01:38:40;;;;;;;16.25;11.80;;;;;;;23.05;74.17;97941.56;5019108;28;20057;-57
2021/07/25 01:41:07;;;;;;;14.32;12.55;;;;;;;23.02;73.78;97934.88;5021716;28;20235;-58
2021/07/25 01:43:35;;;;;;;15.60;12.77;;;;;;;23.12;74.19;97942.22;5018029;28;20026;-56
2021/07/25 01:46:01;;;;;;;15.32;12.13;;;;;;;22.99;73.53;97943.31;5023941;28;20022;-57
2021/07/25 01:48:26;;;;;;;16.65;12.50;;;;;;;22.95;74.01;97931.59;5020962;28;20033;-56
2021/07/25 01:50:52;;;;;;;14.45;12.57;;;;;;;22.98;74.05;97941.72;5019263;28;20531;-56
2021/07/25 01:53:17;;;;;;;16.02;12.23;;;;;;;23.02;75.17;97934.09;5034959;28;20040;-57
2021/07/25 01:55:43;;;;;;;16.05;12.65;;;;;;;23.07;74.48;97943.97;5023569;28;20121;-56
2021/07/25 01:58:09;;;;;;;16.55;13.05;;;;;;;22.97;75.37;97948.06;5020823;28;20029;-56
2021/07/25 02:00:34;;;;;;;16.30;12.57;;;;;;;22.77;76.56;97929.19;5028515;28;20090;-57
2021/07/25 02:03:00;;;;;;;14.70;12.80;;;;;;;22.98;76.62;97941.72;5020485;28;20029;-57
2021/07/25 02:05:25;;;;;;;16.05;13.32;;;;;;;22.96;76.54;97945.63;5018410;28;20104;-56
2021/07/25 02:07:51;;;;;;;17.00;13.10;;;;;;;22.82;76.93;97916.81;5023460;28;20116;-62
2021/07/25 02:10:16;;;;;;;16.77;13.48;;;;;;;22.97;76.77;97948.06;5015620;28;20083;-56
2021/07/25 02:12:42;;;;;;;15.77;13.00;;;;;;;22.98;76.65;97946.19;5025315;28;20041;-57
2021/07/25 02:15:07;;;;;;;14.05;12.60;;;;;;;22.96;76.44;97943.81;5021327;28;20084;-57
2021/07/25 02:17:33;;;;;;;15.57;13.40;;;;;;;22.81;76.48;97922.34;5023874;28;20032;-54
2021/07/25 02:19:58;;;;;;;16.48;13.20;;;;;;;22.98;76.77;97947.03;5022772;28;20107;-56
2021/07/25 02:22:24;;;;;;;15.40;13.77;;;;;;;23.03;76.86;97939.13;5020420;28;20034;-57
2021/07/25 02:24:49;;;;;;;14.85;12.65;;;;;;;22.93;76.21;97936.34;5014551;28;20111;-57
2021/07/25 02:27:14;;;;;;;15.00;12.70;;;;;;;22.80;76.62;97939.31;5021159;28;20432;-58
2021/07/25 02:29:40;;;;;;;14.35;12.75;;;;;;;22.81;76.44;97928.44;5018097;28;20363;-57
2021/07/25 02:32:06;;;;;;;14.73;13.00;;;;;;;22.98;76.43;97935.59;5023104;28;20024;-58
2021/07/25 02:34:31;;;;;;;15.75;12.50;;;;;;;22.92;76.41;97945.31;5020966;28;20033;-57
2021/07/25 02:36:56;;;;;;;15.20;12.85;;;;;;;22.71;76.73;97906.28;5028638;28;20419;-57
2021/07/25 02:39:22;;;;;;;16.70;13.25;;;;;;;22.89;77.10;97939.69;5021032;28;20491;-56
2021/07/25 02:41:47;;;;;;;16.73;12.15;;;;;;;22.90;75.15;97933.34;5016733;28;20025;-57
2021/07/25 02:44:13;;;;;;;14.27;11.52;;;;;;;22.81;74.69;97932.94;5021658;28;20523;-56
2021/07/25 02:46:38;;;;;;;13.57;12.10;;;;;;;22.75;75.35;97932.06;5023642;28;20030;-56
2021/07/25 02:49:03;;;;;;;14.70;11.20;;;;;;;22.75;73.81;97926.75;5026109;28;20037;-56
2021/07/25 02:51:29;;;;;;;15.90;12.60;;;;;;;22.56;75.23;97928.84;5017883;28;20629;-56
2021/07/25 02:53:55;;;;;;;15.75;12.18;;;;;;;22.62;75.11;97925.22;5029756;28;20100;-56
2021/07/25 02:56:20;;;;;;;14.98;12.18;;;;;;;22.59;74.90;97922.25;5002541;28;20044;-56
2021/07/25 02:58:45;;;;;;;16.10;11.57;;;;;;;22.44;74.95;97920.16;5039097;28;20112;-57
2021/07/25 03:01:12;;;;;;;15.75;12.00;;;;;;;22.50;75.14;97921.84;5022751;28;20033;-56
2021/07/25 03:03:38;;;;;;;14.90;12.40;;;;;;;22.63;75.26;97913.59;5021705;28;20709;-57
2021/07/25 03:06:03;;;;;;;13.60;11.85;;;;;;;22.53;74.74;97902.03;5022819;28;20025;-57
2021/07/25 03:08:29;;;;;;;14.70;11.65;;;;;;;22.61;74.54;97905.06;5019904;28;20438;-56
2021/07/25 03:10:54;;;;;;;17.42;11.60;;;;;;;22.67;74.34;97916.56;5010267;28;20033;-57
2021/07/25 03:13:19;;;;;;;14.20;11.82;;;;;;;22.47;75.05;97885.25;5022853;28;20396;-55
2021/07/25 03:15:45;;;;;;;15.80;11.65;;;;;;;22.50;75.25;97915.75;5001943;28;20028;-58
2021/07/25 03:18:10;;;;;;;15.30;11.43;;;;;;;22.40;75.22;97903.94;5021502;28;20125;-57
2021/07/25 03:20:35;;;;;;;14.18;11.57;;;;;;;22.45;74.76;97909.31;5019271;28;20466;-57
2021/07/25 03:23:01;;;;;;;13.80;11.98;;;;;;;22.46;74.82;97916.22;5021152;28;20025;-59
2021/07/25 03:25:26;;;;;;;13.13;11.13;;;;;;;22.55;74.86;97906.03;5023251;28;20099;-57
2021/07/25 03:27:51;;;;;;;15.55;12.18;;;;;;;22.48;74.87;97923.13;5014404;28;20080;-57
2021/07/25 03:30:17;;;;;;;14.80;12.05;;;;;;;22.43;74.49;97914.06;5012037;28;20037;-57
2021/07/25 03:32:42;;;;;;;13.57;11.00;;;;;;;22.35;74.72;97910.97;5023356;28;20033;-56
2021/07/25 03:35:08;;;;;;;14.35;11.25;;;;;;;22.46;74.02;97916.22;5021053;28;20033;-57
2021/07/25 03:37:34;;;;;;;13.57;10.88;;;;;;;22.23;74.27;97880.03;5021990;28;20116;-56
2021/07/25 03:39:59;;;;;;;14.25;11.07;;;;;;;22.38;74.01;97910.50;5021124;28;20639;-58
2021/07/25 03:42:25;;;;;;;15.00;11.70;;;;;;;22.26;74.17;97908.69;5031569;28;20034;-57
2021/07/25 03:44:50;;;;;;;13.93;10.95;;;;;;;22.28;73.97;97911.13;5023747;28;20032;-57
2021/07/25 03:47:16;;;;;;;16.90;11.93;;;;;;;22.23;74.34;97916.28;5004421;28;20120;-59
2021/07/25 03:49:42;;;;;;;14.68;11.77;;;;;;;22.20;74.74;97914.13;5018119;28;20752;-57
2021/07/25 03:52:08;;;;;;;16.50;11.20;;;;;;;22.06;74.44;97882.63;5005427;28;20025;-57
2021/07/25 03:54:34;;;;;;;15.32;11.32;;;;;;;22.32;74.40;97914.09;5025140;28;20036;-56
2021/07/25 03:56:59;;;;;;;16.92;11.82;;;;;;;22.42;74.17;97912.44;5028493;28;20031;-57
2021/07/25 03:59:25;;;;;;;13.10;11.23;;;;;;;22.33;74.09;97916.50;5019770;28;20733;-58
2021/07/25 04:01:50;;;;;;;14.27;11.52;;;;;;;22.38;74.11;97908.66;5021836;28;20061;-56
2021/07/25 04:04:15;;;;;;;15.05;11.25;;;;;;;22.12;74.38;97878.22;5019224;28;20041;-57
2021/07/25 04:06:41;;;;;;;16.33;12.77;;;;;;;22.29;75.03;97925.97;5016358;28;20026;-57
2021/07/25 04:09:06;;;;;;;14.68;11.57;;;;;;;22.26;74.87;97931.75;5023332;28;20413;-57
2021/07/25 04:11:31;;;;;;;15.77;11.38;;;;;;;22.22;75.02;97920.78;5025907;28;20028;-56
2021/07/25 04:13:57;;;;;;;13.45;11.50;;;;;;;22.16;75.25;97912.97;5008785;28;20036;-57
2021/07/25 04:16:22;;;;;;;15.07;11.30;;;;;;;22.21;75.60;97921.81;5020524;28;20041;-56
2021/07/25 04:18:48;;;;;;;15.38;11.48;;;;;;;22.18;75.78;97926.81;5021720;28;20029;-57
2021/07/25 04:21:13;;;;;;;14.85;12.02;;;;;;;22.19;75.84;97921.25;5016807;28;20139;-56
2021/07/25 04:23:42;;;;;;;17.67;11.85;;;;;;;22.04;76.05;97879.41;5035714;28;20052;-56
2021/07/25 04:26:08;;;;;;;14.43;12.25;;;;;;;22.23;76.33;97900.41;5001648;28;20108;-56
2021/07/25 04:28:34;;;;;;;16.58;12.07;;;;;;;22.11;76.71;97884.59;5000722;28;20056;-57
2021/07/25 04:31:00;;;;;;;14.95;12.05;;;;;;;22.32;76.75;97927.34;5026765;28;20696;-56
2021/07/25 04:33:26;;;;;;;14.95;12.32;;;;;;;22.23;76.34;97916.28;5019930;28;20127;-58
2021/07/25 04:35:53;;;;;;;14.57;11.73;;;;;;;22.27;76.27;97917.47;5024445;28;20021;-57
2021/07/25 04:38:20;;;;;;;14.27;12.05;;;;;;;22.12;76.13;97880.88;5022167;28;20029;-56
2021/07/25 04:40:48;;;;;;;16.15;11.90;;;;;;;22.45;75.72;97919.09;5015767;28;20041;-57
2021/07/25 04:43:15;;;;;;;15.23;12.13;;;;;;;22.44;75.87;97917.50;5002924;28;20036;-58
2021/07/25 04:45:47;;;;;;;16.35;13.85;;;;;;;22.52;75.51;97933.00;5004988;28;20379;-57
2021/07/25 04:48:43;;;;;;;15.60;12.73;;;;;;;22.54;75.71;97940.69;5023088;28;20033;-57
2021/07/25 04:51:10;;;;;;;14.93;12.75;;;;;;;22.41;75.54;97941.81;5015581;28;20069;-57
2021/07/25 04:53:40;;;;;;;16.33;12.73;;;;;;;22.32;75.93;97937.94;5019923;28;20750;-59
2021/07/25 04:56:12;;;;;;;13.10;11.57;;;;;;;22.40;75.81;97937.56;5003382;28;20652;-57
2021/07/25 04:58:52;;;;;;;14.18;12.38;;;;;;;22.54;75.99;97930.91;5022751;28;20442;-57
2021/07/25 05:01:24;;;;;;;14.80;11.95;;;;;;;22.61;76.09;97936.84;5020723;28;20041;-57
2021/07/25 05:03:50;;;;;;;17.33;12.25;;;;;;;22.39;76.38;97899.66;5012595;28;20017;-57
2021/07/25 05:06:15;;;;;;;13.55;12.13;;;;;;;22.72;75.65;97926.44;5016886;28;20356;-57
2021/07/25 05:08:42;;;;;;;15.00;11.55;;;;;;;22.78;76.14;97925.47;5021068;28;20032;-57
2021/07/25 05:11:13;;;;;;;14.82;11.82;;;;;;;22.77;75.89;97922.03;5003307;28;20196;-58
2021/07/25 05:13:46;;;;;;;15.10;12.20;;;;;;;22.70;76.42;97916.06;5022239;28;20033;-57
2021/07/25 05:16:13;;;;;;;14.52;12.20;;;;;;;22.59;76.30;97898.41;5001813;28;20175;-56
2021/07/25 05:18:40;;;;;;;13.95;11.68;;;;;;;22.87;76.04;97924.03;5037251;28;20624;-57
2021/07/25 05:21:13;;;;;;;15.02;11.75;;;;;;;22.94;75.86;97918.56;5020488;28;20045;-58
2021/07/25 05:23:42;;;;;;;15.63;11.18;;;;;;;22.95;75.79;97901.63;5020282;28;20021;-57
2021/07/25 05:26:10;;;;;;;15.52;12.02;;;;;;;22.95;75.63;97897.13;5031114;28;20037;-57
2021/07/25 05:28:36;;;;;;;16.20;12.45;;;;;;;22.87;76.02;97915.28;5001369;28;20145;-57
2021/07/25 05:31:02;;;;;;;14.27;11.10;;;;;;;22.73;75.88;97891.75;5020513;28;20033;-57
2021/07/25 05:33:27;;;;;;;15.77;11.80;;;;;;;23.00;75.58;97913.13;5018873;28;20017;-57
2021/07/25 05:35:53;;;;;;;15.93;12.05;;;;;;;22.99;74.96;97908.06;5023360;28;20713;-56
2021/07/25 05:38:19;;;;;;;12.77;11.05;;;;;;;22.97;75.77;97897.69;5020416;28;20036;-58
2021/07/25 05:40:45;;;;;;;14.35;11.68;;;;;;;22.91;75.97;97896.00;5023109;28;20803;-58
2021/07/25 05:43:10;;;;;;;14.30;11.55;;;;;;;22.96;75.50;97906.69;5023508;28;20150;-57
2021/07/25 05:45:36;;;;;;;15.35;11.57;;;;;;;23.02;75.68;97913.66;5056799;28;20112;-56
2021/07/25 05:48:02;;;;;;;15.68;11.73;;;;;;;23.07;75.61;97917.47;5024135;28;20110;-57
2021/07/25 05:50:27;;;;;;;14.32;11.85;;;;;;;23.09;75.39;97918.03;5023482;28;20123;-57
2021/07/25 05:52:57;;;;;;;15.32;11.80;;;;;;;23.16;74.30;97919.50;5022972;28;20033;-57
2021/07/25 05:55:29;;;;;;;16.65;11.82;;;;;;;23.15;74.33;97903.81;5020494;28;20107;-57
2021/07/25 05:57:54;;;;;;;14.13;12.18;;;;;;;23.25;73.80;97898.63;5022158;28;20040;-57
2021/07/25 06:00:20;;;;;;;14.65;11.63;;;;;;;23.21;73.92;97877.09;5023445;28;20046;-58
2021/07/25 06:03:00;;;;;;;16.90;12.38;;;;;;;23.15;73.34;97866.69;5020030;28;20820;-58
2021/07/25 06:05:30;;;;;;;15.60;11.60;;;;;;;23.25;73.30;97858.84;5015887;28;20044;-57
2021/07/25 06:07:56;;;;;;;15.50;11.90;;;;;;;23.32;73.07;97845.44;5005135;28;20832;-56
2021/07/25 06:10:23;;;;;;;14.77;12.50;;;;;;;23.22;73.74;97844.25;5024303;28;20144;-57
2021/07/25 06:12:51;;;;;;;17.38;13.52;;;;;;;23.21;73.62;97839.19;5012754;28;20083;-57
2021/07/25 06:15:16;;;;;;;19.88;16.65;;;;;;;23.34;70.65;97835.38;5012561;28;20613;-57
2021/07/25 06:17:42;;;;;;;20.70;16.73;;;;;;;23.39;69.92;97841.53;5019378;28;20041;-58
2021/07/25 06:20:07;;;;;;;23.63;17.38;;;;;;;23.38;69.98;97852.41;5022973;28;20029;-57
2021/07/25 06:22:47;;;;;;;21.60;18.17;;;;;;;23.39;69.28;97857.47;5022186;28;20030;-56
2021/07/25 06:25:13;;;;;;;;;;;;;;;23.33;69.66;97850.50;5016965;28;20517;-57
2021/07/25 06:27:39;;;;;;;22.45;18.38;;;;;;;23.32;69.47;97840.13;5039218;28;20391;-56
2021/07/25 06:30:06;;;;;;;22.45;18.13;;;;;;;23.33;69.67;97847.84;5022881;28;20024;-57
2021/07/25 06:32:31;;;;;;;23.73;18.65;;;;;;;23.28;69.47;97839.03;5019595;28;20037;-58
2021/07/25 06:34:57;;;;;;;22.30;18.33;;;;;;;23.35;69.48;97852.91;5018432;28;20021;-57
2021/07/25 06:37:22;;;;;;;21.10;18.17;;;;;;;23.34;69.84;97859.25;5048815;28;20049;-56
2021/07/25 06:39:48;;;;;;;23.02;18.25;;;;;;;23.32;70.15;97856.03;5019183;28;20037;-57
2021/07/25 06:42:13;;;;;;;21.08;17.60;;;;;;;23.20;70.51;97846.34;5021890;28;20037;-58
2021/07/25 06:44:39;;;;;;;23.33;18.63;;;;;;;23.27;70.58;97848.00;5026060;28;20085;-58
2021/07/25 06:47:04;;;;;;;22.38;18.52;;;;;;;23.25;70.78;97840.28;5018484;28;20538;-56
2021/07/25 06:49:30;;;;;;;20.98;17.30;;;;;;;23.25;70.45;97842.94;5013103;28;20526;-58
2021/07/25 06:51:55;;;;;;;22.52;18.02;;;;;;;23.22;70.40;97852.22;5022366;28;20349;-57
2021/07/25 06:54:20;;;;;;;23.65;18.77;;;;;;;23.26;70.44;97851.72;5009239;28;20033;-58
2021/07/25 06:56:46;;;;;;;20.92;17.98;;;;;;;23.25;70.38;97840.28;5023020;28;20029;-58
2021/07/25 06:59:11;;;;;;;28.80;18.98;;;;;;;23.25;70.01;97836.84;5013827;28;20137;-57
2021/07/25 07:01:37;;;;;;;22.98;18.27;;;;;;;23.29;70.14;97835.31;5009339;28;20033;-57
2021/07/25 07:04:02;;;;;;;20.95;17.92;;;;;;;23.23;70.13;97843.19;5005481;28;20483;-57
2021/07/25 07:06:27;;;;;;;23.58;18.65;;;;;;;23.21;70.07;97866.50;5008668;28;20029;-56
2021/07/25 07:08:53;;;;;;;23.58;20.30;;;;;;;23.13;70.06;97874.09;5020808;28;20026;-57
2021/07/25 07:11:18;;;;;;;25.10;20.08;;;;;;;23.13;70.52;97884.69;5008282;28;20167;-57
2021/07/25 07:13:44;;;;;;;23.25;19.77;;;;;;;23.13;70.55;97885.50;5026511;28;20060;-57
2021/07/25 07:16:10;;;;;;;23.77;19.17;;;;;;;23.17;70.52;97883.16;5018060;28;20065;-57
2021/07/25 07:18:35;;;;;;;25.48;20.38;;;;;;;23.16;70.42;97871.75;5024266;28;20095;-56
2021/07/25 07:21:01;;;;;;;24.40;18.83;;;;;;;23.19;70.72;97884.50;5022508;28;20029;-57
2021/07/25 07:23:26;;;;;;;23.50;19.75;;;;;;;23.10;70.79;97901.88;5017760;28;20101;-58
2021/07/25 07:25:53;;;;;;;23.48;19.15;;;;;;;23.10;70.95;97915.13;5022701;28;20052;-57
2021/07/25 07:28:20;;;;;;;23.15;19.55;;;;;;;23.12;71.46;97914.91;5023057;28;20037;-57
2021/07/25 07:30:51;;;;;;;22.17;19.77;;;;;;;22.90;71.21;97867.09;4999548;28;20033;-57
2021/07/25 07:33:18;;;;;;;23.02;20.30;;;;;;;23.21;70.49;97900.19;5019357;28;20025;-59
2021/07/25 07:35:44;;;;;;;22.67;19.88;;;;;;;23.15;70.71;97896.66;5021102;28;21464;-56
2021/07/25 07:38:11;;;;;;;24.70;20.52;;;;;;;23.14;71.05;97904.84;5020986;28;20021;-57
2021/07/25 07:40:37;;;;;;;24.27;20.55;;;;;;;23.21;70.25;97908.13;5021148;28;20049;-57
2021/07/25 07:43:04;;;;;;;21.42;18.70;;;;;;;23.19;70.86;97911.03;5022408;28;20436;-59
2021/07/25 07:45:30;;;;;;;24.38;20.42;;;;;;;23.23;70.50;97924.59;5033472;28;20033;-57
2021/07/25 07:47:55;;;;;;;23.90;20.23;;;;;;;23.19;70.68;97926.13;5027039;28;20023;-58
2021/07/25 07:50:21;;;;;;;22.05;19.35;;;;;;;23.22;70.47;97936.28;5020215;28;20037;-58
2021/07/25 07:52:46;;;;;;;25.95;19.73;;;;;;;23.24;70.39;97942.13;5022407;28;20013;-58
2021/07/25 07:55:13;;;;;;;24.73;18.85;;;;;;;23.17;70.59;97934.34;5017246;28;20030;-58
2021/07/25 07:57:38;;;;;;;23.98;19.80;;;;;;;23.09;70.75;97937.41;5025312;28;20022;-58
2021/07/25 08:00:09;;;;;;;23.35;20.00;;;;;;;22.90;71.70;97938.66;5004572;28;20022;-57
2021/07/25 08:02:35;;;;;;;23.90;19.25;;;;;;;22.93;71.54;97940.84;5003536;28;20036;-58
2021/07/25 08:05:02;;;;;;;25.33;19.73;;;;;;;22.96;71.97;97953.59;5018804;28;20047;-58
2021/07/25 08:07:27;;;;;;;23.48;19.33;;;;;;;22.66;72.14;97883.16;5020827;28;20366;-58
2021/07/25 08:09:53;;;;;;;22.45;19.35;;;;;;;23.08;71.83;97922.53;5027692;28;20035;-57
2021/07/25 08:12:18;;;;;;;21.08;17.85;;;;;;;23.17;72.67;97907.81;5023731;28;20079;-58
2021/07/25 08:14:44;;;;;;;22.40;17.95;;;;;;;22.96;71.87;97866.94;5024184;28;20036;-56
2021/07/25 08:17:09;;;;;;;21.75;17.38;;;;;;;22.98;71.51;97882.56;5021813;28;20761;-58
2021/07/25 08:19:35;;;;;;;26.20;19.75;;;;;;;23.08;72.49;97905.84;5019406;28;20403;-57
2021/07/25 08:22:02;;;;;;;20.73;17.80;;;;;;;23.15;72.52;97909.91;5020093;28;20536;-56
2021/07/25 08:24:28;;;;;;;21.15;18.40;;;;;;;22.96;73.61;97877.53;5016073;28;20033;-57
2021/07/25 08:26:53;;;;;;;22.63;18.67;;;;;;;23.02;75.47;97904.94;5024535;28;20050;-59
2021/07/25 08:29:19;;;;;;;21.45;18.35;;;;;;;23.01;76.33;97882.09;5019498;28;20044;-58
2021/07/25 08:31:44;;;;;;;23.10;19.15;;;;;;;23.03;76.43;97872.84;5025445;28;20052;-56
2021/07/25 08:34:09;;;;;;;20.58;18.10;;;;;;;23.09;76.71;97887.03;5022156;28;20044;-57
2021/07/25 08:36:35;;;;;;;23.88;18.17;;;;;;;22.91;76.64;97861.56;5018470;28;20030;-57
2021/07/25 08:39:01;;;;;;;22.55;19.02;;;;;;;23.11;77.46;97902.66;5020203;28;20633;-57
2021/07/25 08:41:32;;;;;;;20.27;17.98;;;;;;;22.99;75.69;97898.25;5018090;28;20116;-57
2021/07/25 08:44:11;;;;;;;19.70;17.60;;;;;;;22.85;74.49;97889.00;5025131;28;20056;-56
2021/07/25 08:46:37;;;;;;;21.98;16.77;;;;;;;22.88;73.84;97908.94;5025498;28;20053;-55
2021/07/25 08:49:04;;;;;;;19.85;16.25;;;;;;;22.76;73.77;97882.50;5003853;28;20467;-56
2021/07/25 08:51:38;;;;;;;19.75;16.05;;;;;;;22.76;73.62;97879.84;5003625;28;20345;-52
2021/07/25 08:54:06;;;;;;;19.67;16.42;;;;;;;22.78;73.92;97885.72;5004294;28;20491;-55
2021/07/25 08:56:35;;;;;;;20.30;15.52;;;;;;;22.72;74.61;97857.53;5015618;28;20057;-57
2021/07/25 08:59:05;;;;;;;21.55;16.48;;;;;;;22.61;75.28;97840.69;5023404;28;20033;-58
2021/07/25 09:01:34;;;;;;;17.92;15.95;;;;;;;22.76;75.76;97893.94;5002974;28;20072;-57
2021/07/25 09:04:00;;;;;;;22.67;19.73;;;;;;;22.52;77.82;97880.00;5019514;28;20060;-55
2021/07/25 09:06:33;;;;;;;24.83;19.65;;;;;;;22.31;79.77;97870.13;5018353;28;20028;-58
2021/07/25 09:08:59;;;;;;;25.83;20.20;;;;;;;22.21;79.09;97860.91;5021316;28;20132;-57
2021/07/25 09:11:25;;;;;;;23.23;20.10;;;;;;;22.27;79.56;97896.28;5021834;28;20578;-58
2021/07/25 09:13:52;;;;;;;27.23;22.35;;;;;;;22.26;80.80;97911.34;5003953;28;20033;-58
2021/07/25 09:16:18;;;;;;;27.58;20.92;;;;;;;22.31;81.34;97937.13;5029517;28;20056;-57
2021/07/25 09:18:43;;;;;;;28.48;20.33;;;;;;;22.01;82.55;97945.25;5026047;28;20026;-57
2021/07/25 09:21:08;;;;;;;25.95;19.40;;;;;;;22.01;82.82;97954.03;5024149;28;20042;-58
2021/07/25 09:23:34;;;;;;;26.42;18.08;;;;;;;21.88;83.07;97949.78;5024757;28;20042;-57
2021/07/25 09:25:59;;;;;;;22.73;18.33;;;;;;;21.95;81.76;97935.63;5026386;28;20589;-58
2021/07/25 09:28:25;;;;;;;21.50;17.70;;;;;;;21.38;82.03;97881.53;5020012;28;20144;-57
2021/07/25 09:30:52;;;;;;;20.92;17.10;;;;;;;21.77;81.18;97933.94;5024902;28;20887;-57
2021/07/25 09:33:21;;;;;;;23.42;18.60;;;;;;;21.61;81.01;97928.34;5025535;28;20038;-58
2021/07/25 09:35:47;;;;;;;;;;;;;;;21.85;81.36;97970.63;5027641;28;20079;-57
2021/07/25 09:38:14;;;;;;;25.08;18.67;;;;;;;21.88;83.37;97952.41;5036350;28;19921;-57
2021/07/25 09:40:42;;;;;;;24.58;19.88;;;;;;;22.15;83.85;97959.84;5024267;28;20033;-57
2021/07/25 09:43:19;;;;;;;26.13;20.58;;;;;;;22.24;84.02;97952.31;5009556;28;20049;-57
2021/07/25 09:45:49;;;;;;;22.80;19.08;;;;;;;22.26;83.21;97955.56;5005988;28;20030;-57
2021/07/25 09:48:16;;;;;;;22.77;18.58;;;;;;;22.26;83.15;97964.31;5025207;28;20040;-58
2021/07/25 09:50:41;;;;;;;23.83;18.55;;;;;;;22.38;82.86;97977.53;5010212;28;20033;-58
2021/07/25 09:53:07;;;;;;;24.33;19.67;;;;;;;22.49;82.88;97975.03;5024727;28;20429;-56
2021/07/25 09:55:32;;;;;;;25.45;19.50;;;;;;;22.20;82.86;97969.72;5022673;28;20037;-57
2021/07/25 09:57:58;;;;;;;25.13;20.30;;;;;;;22.22;83.46;97965.00;5032205;28;20035;-55
2021/07/25 10:00:46;;;;;;;24.58;20.45;;;;;;;22.36;82.57;97966.38;5004442;28;20092;-56
2021/07/25 10:03:17;;;;;;;27.17;19.23;;;;;;;22.26;82.19;97929.88;5017340;28;20025;-57
2021/07/25 10:05:42;;;;;;;24.92;20.02;;;;;;;22.61;81.42;97955.41;5028053;28;20592;-58
2021/07/25 10:08:15;;;;;;;19.38;17.27;;;;;;;22.67;78.97;97964.25;5022493;28;20028;-57
2021/07/25 10:10:40;;;;;;;21.70;17.70;;;;;;;22.67;78.43;97947.53;5005930;28;20057;-56
2021/07/25 10:13:06;;;;;;;22.85;19.20;;;;;;;22.82;77.49;97959.22;5016115;28;20117;-57
2021/07/25 10:15:32;;;;;;;20.35;18.00;;;;;;;22.92;78.48;97960.41;5025164;28;20498;-56
2021/07/25 10:17:59;;;;;;;20.17;16.90;;;;;;;23.01;77.49;97958.97;5024065;28;20032;-56
2021/07/25 10:20:25;;;;;;;19.83;16.08;;;;;;;22.92;75.72;97926.75;5020128;28;20017;-58
2021/07/25 10:22:50;;;;;;;22.40;16.60;;;;;;;23.28;76.38;97961.81;5024528;28;20025;-57
2021/07/25 10:25:17;;;;;;;21.70;17.65;;;;;;;23.34;74.48;97962.69;5023062;28;20404;-58
2021/07/25 10:27:44;;;;;;;19.90;17.10;;;;;;;23.31;73.59;97969.28;5026565;28;20503;-57
2021/07/25 10:30:11;;;;;;;22.30;17.20;;;;;;;23.36;73.68;97968.53;5003787;28;20625;-58
2021/07/25 10:32:38;;;;;;;18.38;16.40;;;;;;;23.21;72.68;97956.66;4999049;28;20029;-57
2021/07/25 10:35:06;;;;;;;19.63;15.95;;;;;;;23.24;75.06;97958.03;5024711;28;20026;-57
2021/07/25 10:37:32;;;;;;;18.35;16.25;;;;;;;23.40;73.57;97954.56;5021783;28;20022;-57
2021/07/25 10:39:59;;;;;;;20.42;16.80;;;;;;;23.49;73.62;97959.44;5006989;28;20034;-57
2021/07/25 10:42:27;;;;;;;19.23;16.60;;;;;;;23.45;73.58;97950.38;4998367;28;20120;-56
2021/07/25 10:44:53;;;;;;;22.00;16.92;;;;;;;23.40;73.39;97927.22;5004744;28;20029;-56
2021/07/25 10:47:25;;;;;;;19.98;15.90;;;;;;;23.58;71.35;97950.00;5020230;28;20512;-57
2021/07/25 10:50:17;;;;;;;20.88;16.13;;;;;;;23.73;71.16;97936.97;5038832;28;20060;-58
2021/07/25 10:53:12;;;;;;;23.90;16.05;;;;;;;23.86;70.95;97945.63;5025094;28;20025;-57
2021/07/25 10:55:34;;;;;;;20.92;17.48;;;;;;;24.02;72.93;97941.28;5020092;28;20075;-56
2021/07/25 10:58:04;;;;;;;20.73;18.48;;;;;;;23.88;73.22;97901.84;5021852;28;20471;-56
2021/07/25 11:00:43;;;;;;;21.60;16.98;;;;;;;23.94;72.94;97948.66;5021697;28;20033;-56
2021/07/25 11:03:10;;;;;;;19.15;16.45;;;;;;;23.93;72.66;97947.06;5014425;28;20366;-56
2021/07/25 11:06:01;;;;;;;20.17;16.13;;;;;;;23.73;71.44;97947.56;5023077;28;20033;-57
2021/07/25 11:08:52;;;;;;;18.30;16.13;;;;;;;23.64;72.55;97950.88;5010097;28;20076;-57
2021/07/25 11:11:26;;;;;;;21.38;16.90;;;;;;;23.67;72.30;97959.16;5027239;28;20057;-57
2021/07/25 11:13:52;;;;;;;17.92;15.70;;;;;;;23.81;70.47;97959.63;5026655;28;20388;-57
2021/07/25 11:16:30;;;;;;;20.30;16.40;;;;;;;24.18;70.46;97957.16;5008715;28;20429;-56
2021/07/25 11:18:57;;;;;;;22.90;16.75;;;;;;;24.48;68.95;97947.13;5025677;28;20312;-57